Time;durP1;ratioP1;P1;durP2;ratioP2;P2;SDS_P1;SDS_P2;PMS_P1;PMS_P2;Temp;Humidity;BMP_temperature;BMP_pressure;BME280_temperature;BME280_humidity;BME280_pressure;Samples;Min_cycle;Max_cycle;Signal;HPM_P1;HPM_P2
2024/03/23 00:01:01;;;;;;;62.10;33.90;;;;;;;10.40;100.00;99509.88;178635;1256;46053;-83
2024/03/23 00:05:08;;;;;;;47.60;28.20;;;;;;;10.39;100.00;99508.66;178247;1256;46128;-83
2024/03/23 00:09:11;;;;;;;58.10;30.50;;;;;;;10.41;100.00;99502.52;177923;1255;45987;-83
2024/03/23 00:13:14;;;;;;;52.70;27.60;;;;;;;10.44;100.00;99493.95;178274;1256;46078;-83
2024/03/23 00:17:16;;;;;;;44.20;26.60;;;;;;;10.45;100.00;99492.23;177688;1259;58188;-84
2024/03/23 00:21:19;;;;;;;29.00;20.10;;;;;;;10.46;100.00;99489.98;178278;1259;44532;-84
2024/03/23 00:25:22;;;;;;;43.30;26.40;;;;;;;10.53;100.00;99481.37;178783;1256;46916;-83
2024/03/23 00:29:25;;;;;;;40.10;19.20;;;;;;;10.55;100.00;99478.91;177877;1259;46223;-83
2024/03/23 00:33:28;;;;;;;29.40;20.10;;;;;;;10.55;100.00;99467.55;177661;1256;45866;-85
2024/03/23 00:37:31;;;;;;;42.90;25.50;;;;;;;10.60;100.00;99456.63;177404;1256;59611;-84
2024/03/23 00:41:34;;;;;;;62.90;32.90;;;;;;;10.61;100.00;99446.90;177744;1257;46001;-84
2024/03/23 00:45:37;;;;;;;46.80;27.30;;;;;;;10.59;100.00;99437.36;177968;1257;46124;-83
2024/03/23 00:49:40;;;;;;;43.10;26.80;;;;;;;10.57;100.00;99435.05;178227;1259;46234;-83
2024/03/23 00:53:43;;;;;;;43.40;25.90;;;;;;;10.58;100.00;99425.02;177824;1259;46107;-84
2024/03/23 00:57:46;;;;;;;30.60;20.10;;;;;;;10.54;100.00;99418.38;177876;1256;60205;-83
2024/03/23 01:01:48;;;;;;;40.20;23.70;;;;;;;10.49;100.00;99416.37;177687;1259;46063;-83
2024/03/23 01:05:53;;;;;;;37.30;24.20;;;;;;;10.43;100.00;99405.70;177972;1257;46041;-83
2024/03/23 01:09:56;;;;;;;38.00;23.70;;;;;;;10.42;100.00;99394.80;178263;1257;45621;-83
2024/03/23 01:13:59;;;;;;;34.10;23.40;;;;;;;10.43;100.00;99387.79;178209;1256;45913;-83
2024/03/23 01:18:02;;;;;;;22.90;16.90;;;;;;;10.39;100.00;99377.91;178099;1256;59753;-83
2024/03/23 01:22:05;;;;;;;27.00;15.80;;;;;;;10.36;100.00;99365.03;178091;1256;46035;-83
2024/03/23 01:26:08;;;;;;;17.80;14.30;;;;;;;10.26;100.00;99359.23;178428;1256;46380;-83
2024/03/23 01:30:11;;;;;;;19.10;14.60;;;;;;;10.23;100.00;99358.88;177496;1256;46028;-83
2024/03/23 01:34:13;;;;;;;22.70;15.10;;;;;;;10.18;100.00;99352.07;178160;1256;45988;-83
2024/03/23 01:38:16;;;;;;;23.60;16.70;;;;;;;10.23;100.00;99349.65;177552;1256;60215;-83
2024/03/23 01:42:20;;;;;;;23.70;15.60;;;;;;;10.28;100.00;99338.65;178074;1258;46096;-83
2024/03/23 01:46:23;;;;;;;29.80;14.40;;;;;;;10.32;100.00;99337.43;178054;1257;45968;-83
2024/03/23 01:50:27;;;;;;;23.90;15.30;;;;;;;10.39;100.00;99331.80;178249;1257;45924;-82
2024/03/23 01:54:31;;;;;;;26.00;15.90;;;;;;;10.47;100.00;99325.97;177641;1258;46036;-83
2024/03/23 01:58:33;;;;;;;18.40;14.30;;;;;;;10.53;100.00;99310.34;177875;1257;59832;-83
2024/03/23 02:02:37;;;;;;;25.80;15.80;;;;;;;10.54;100.00;99307.87;177560;1258;46850;-83
2024/03/23 02:06:39;;;;;;;22.10;14.50;;;;;;;10.62;100.00;99309.81;177957;1256;46022;-83
2024/03/23 02:10:42;;;;;;;19.30;14.40;;;;;;;10.68;100.00;99313.27;177938;1259;44171;-83
2024/03/23 02:14:45;;;;;;;16.90;13.10;;;;;;;10.76;100.00;99313.44;177591;1259;45879;-83
2024/03/23 02:18:48;;;;;;;21.10;14.30;;;;;;;10.80;100.00;99309.23;177570;1257;59552;-84
2024/03/23 02:22:53;;;;;;;20.50;17.80;;;;;;;10.80;100.00;99308.54;177565;1256;45915;-83
2024/03/23 02:26:55;;;;;;;24.60;18.10;;;;;;;10.87;100.00;99304.20;177511;1259;46093;-83
2024/03/23 02:31:00;;;;;;;25.20;16.60;;;;;;;10.91;100.00;99301.12;177613;1256;46160;-83
2024/03/23 02:35:04;;;;;;;26.60;17.40;;;;;;;10.94;100.00;99301.76;177803;1259;46144;-83
2024/03/23 02:39:07;;;;;;;17.60;13.60;;;;;;;11.00;100.00;99293.29;177511;1259;59649;-83
2024/03/23 02:43:10;;;;;;;21.10;14.30;;;;;;;11.05;100.00;99294.23;177926;1259;46061;-84
2024/03/23 02:47:13;;;;;;;18.90;14.10;;;;;;;11.10;100.00;99290.35;177970;1257;46256;-83
2024/03/23 02:51:16;;;;;;;19.80;14.20;;;;;;;11.16;100.00;99286.76;177896;1255;45301;-84
2024/03/23 02:55:18;;;;;;;22.50;14.20;;;;;;;11.17;100.00;99282.07;178075;1256;45657;-84
2024/03/23 02:59:21;;;;;;;19.90;13.30;;;;;;;11.14;100.00;99277.16;177628;1256;59697;-84
2024/03/23 03:03:24;;;;;;;24.40;13.60;;;;;;;11.18;100.00;99268.44;177687;1260;46131;-83
2024/03/23 03:07:27;;;;;;;17.20;13.00;;;;;;;11.22;100.00;99261.66;177530;1260;46224;-84
2024/03/23 03:11:30;;;;;;;18.20;12.30;;;;;;;11.25;100.00;99255.19;178342;1257;46156;-83
2024/03/23 03:15:33;;;;;;;20.60;15.00;;;;;;;11.28;100.00;99247.92;177605;1257;46011;-83
2024/03/23 03:19:36;;;;;;;18.60;13.90;;;;;;;11.29;100.00;99244.16;177857;1257;58316;-83
2024/03/23 03:23:40;;;;;;;22.00;14.70;;;;;;;11.21;100.00;99241.15;178608;1256;46109;-83
2024/03/23 03:27:43;;;;;;;16.70;12.70;;;;;;;11.13;100.00;99241.32;177458;1255;46131;-83
2024/03/23 03:31:46;;;;;;;21.50;15.10;;;;;;;11.11;100.00;99231.93;178114;1257;45203;-82
2024/03/23 03:35:48;;;;;;;26.10;13.10;;;;;;;11.10;100.00;99225.80;177681;1261;45974;-83
2024/03/23 03:39:51;;;;;;;19.30;13.70;;;;;;;11.02;100.00;99223.55;177937;1257;59421;-82
2024/03/23 03:43:55;;;;;;;15.10;12.10;;;;;;;10.88;100.00;99219.63;177674;1256;46134;-83
2024/03/23 03:47:59;;;;;;;20.10;12.00;;;;;;;10.77;100.00;99222.88;177476;1260;45996;-84
2024/03/23 03:52:02;;;;;;;16.40;11.50;;;;;;;10.65;100.00;99216.09;178094;1255;46112;-84
2024/03/23 03:56:04;;;;;;;16.40;11.90;;;;;;;10.51;100.00;99215.27;177770;1260;46183;-83
2024/03/23 04:00:11;;;;;;;19.30;15.10;;;;;;;10.49;100.00;99218.48;178021;1258;58476;-82
2024/03/23 04:04:16;;;;;;;22.50;15.20;;;;;;;10.48;100.00;99217.34;177573;1257;46013;-83
2024/03/23 04:08:19;;;;;;;27.70;17.10;;;;;;;10.46;100.00;99214.60;177592;1257;46023;-82
2024/03/23 04:12:23;;;;;;;22.50;18.20;;;;;;;10.33;100.00;99204.46;177661;1256;46568;-82
2024/03/23 04:16:28;;;;;;;23.90;17.80;;;;;;;10.26;100.00;99199.85;178064;1256;44480;-83
2024/03/23 04:20:32;;;;;;;24.00;15.50;;;;;;;10.23;100.00;99195.20;178050;1257;57606;-83
2024/03/23 04:24:34;;;;;;;16.70;13.20;;;;;;;10.11;100.00;99198.20;177951;1255;44612;-83
2024/03/23 04:28:37;;;;;;;14.10;10.70;;;;;;;9.92;100.00;99202.34;177912;1257;46214;-82
2024/03/23 04:32:41;;;;;;;11.70;10.30;;;;;;;9.78;100.00;99204.70;177552;1260;46124;-82
2024/03/23 04:36:44;;;;;;;19.20;12.90;;;;;;;9.75;100.00;99201.64;178070;1260;46221;-83
2024/03/23 04:40:57;;;;;;;24.90;13.20;;;;;;;9.72;100.00;99201.27;177854;1256;59276;-82
2024/03/23 04:45:00;;;;;;;20.50;13.00;;;;;;;9.70;100.00;99213.13;178575;1255;45966;-82
2024/03/23 04:49:04;;;;;;;15.60;12.60;;;;;;;9.69;100.00;99211.07;178410;1257;46008;-82
2024/03/23 04:53:07;;;;;;;21.20;14.20;;;;;;;9.68;100.00;99200.73;178657;1256;46146;-82
2024/03/23 04:57:10;;;;;;;19.60;13.20;;;;;;;9.63;100.00;99196.08;178399;1257;46030;-83
2024/03/23 05:01:13;;;;;;;16.00;11.50;;;;;;;9.52;100.00;99194.05;177675;1259;59758;-83
2024/03/23 05:05:16;;;;;;;13.90;10.60;;;;;;;9.52;100.00;99190.17;178303;1260;46131;-83
2024/03/23 05:09:19;;;;;;;24.10;13.30;;;;;;;9.55;100.00;99184.42;177943;1260;45978;-83
2024/03/23 05:13:22;;;;;;;16.70;13.10;;;;;;;9.58;100.00;99178.10;178275;1257;45985;-82
2024/03/23 05:17:25;;;;;;;19.80;12.60;;;;;;;9.60;100.00;99163.25;177512;1256;46125;-82
2024/03/23 05:21:28;;;;;;;20.60;13.70;;;;;;;9.59;100.00;99162.13;177774;1257;60137;-82
2024/03/23 05:25:31;;;;;;;19.20;13.80;;;;;;;9.49;100.00;99155.13;177736;1256;46363;-82
2024/03/23 05:29:34;;;;;;;22.50;17.10;;;;;;;9.42;100.00;99148.86;177679;1256;46038;-83
2024/03/23 05:33:40;;;;;;;19.60;15.80;;;;;;;9.49;100.00;99144.45;177321;1257;46259;-82
2024/03/23 05:37:44;;;;;;;;;;;;;;;9.58;100.00;99145.57;178628;1256;46170;-82
2024/03/23 05:41:47;;;;;;;20.50;14.70;;;;;;;9.63;100.00;99152.66;177895;1257;59898;-83
2024/03/23 05:45:57;;;;;;;20.70;12.80;;;;;;;9.73;100.00;99158.33;178206;1256;46823;-82
2024/03/23 05:50:01;;;;;;;15.40;11.70;;;;;;;9.81;100.00;99162.27;177997;1257;44536;-82
2024/03/23 05:54:04;;;;;;;18.70;11.70;;;;;;;9.65;100.00;99152.89;178689;1257;46097;-82
2024/03/23 05:58:07;;;;;;;20.80;11.70;;;;;;;9.45;100.00;99146.48;177709;1255;46137;-83
2024/03/23 06:02:10;;;;;;;20.20;13.40;;;;;;;9.42;100.00;99141.20;177742;1258;60482;-82
2024/03/23 06:06:13;;;;;;;15.00;12.50;;;;;;;9.45;100.00;99133.17;178700;1259;46150;-82
2024/03/23 06:10:16;;;;;;;20.20;14.20;;;;;;;9.44;100.00;99114.34;177811;1257;45984;-83
2024/03/23 06:14:19;;;;;;;26.30;17.40;;;;;;;9.70;100.00;99108.64;177639;1254;45937;-83
2024/03/23 06:18:22;;;;;;;23.40;17.00;;;;;;;10.20;100.00;99105.10;178707;1257;45927;-82
2024/03/23 06:22:24;;;;;;;25.90;18.80;;;;;;;10.70;100.00;99097.15;177670;1258;58858;-84
2024/03/23 06:26:27;;;;;;;26.50;18.60;;;;;;;11.15;100.00;99088.53;177840;1260;46106;-83
2024/03/23 06:30:31;;;;;;;21.80;16.50;;;;;;;11.34;100.00;99091.67;178220;1256;45994;-84
2024/03/23 06:34:35;;;;;;;16.60;12.80;;;;;;;11.52;100.00;99088.58;178177;1257;46067;-84
2024/03/23 06:38:38;;;;;;;20.20;14.60;;;;;;;11.69;100.00;99082.94;178074;1257;44232;-83
2024/03/23 06:42:41;;;;;;;21.60;14.50;;;;;;;11.94;100.00;99067.70;178057;1257;59282;-83
2024/03/23 06:46:44;;;;;;;19.30;16.00;;;;;;;12.19;100.00;99060.94;177800;1256;46109;-83
2024/03/23 06:50:48;;;;;;;23.00;16.60;;;;;;;12.54;100.00;99052.03;177768;1256;45998;-83
2024/03/23 06:54:50;;;;;;;15.80;14.10;;;;;;;12.91;100.00;99031.40;178667;1256;46039;-83
2024/03/23 06:58:53;;;;;;;21.30;13.40;;;;;;;13.18;100.00;99025.22;177810;1257;46109;-83
2024/03/23 07:02:56;;;;;;;16.80;13.40;;;;;;;13.33;100.00;99018.05;178709;1255;59592;-85
2024/03/23 07:06:59;;;;;;;18.50;12.60;;;;;;;13.64;100.00;99012.02;178338;1256;45999;-84
2024/03/23 07:11:02;;;;;;;19.90;13.50;;;;;;;13.86;100.00;99008.14;177880;1260;46414;-84
2024/03/23 07:15:05;;;;;;;19.30;14.40;;;;;;;14.04;100.00;99000.29;177716;1256;46119;-84
2024/03/23 07:19:08;;;;;;;19.90;13.60;;;;;;;14.30;99.47;98981.90;177754;1256;45899;-84
2024/03/23 07:23:11;;;;;;;21.60;14.50;;;;;;;14.48;99.06;98957.89;178358;1256;59846;-84
2024/03/23 07:27:14;;;;;;;20.60;15.90;;;;;;;14.58;99.92;98942.11;177870;1256;46167;-84
2024/03/23 07:31:17;;;;;;;19.70;13.50;;;;;;;14.43;99.89;98937.27;178335;1257;45997;-84
2024/03/23 07:35:20;;;;;;;20.50;15.80;;;;;;;14.29;100.00;98948.89;178269;1257;46148;-83
2024/03/23 07:39:23;;;;;;;24.30;18.30;;;;;;;14.18;100.00;98959.35;177856;1257;45975;-84
2024/03/23 07:43:25;;;;;;;21.10;16.40;;;;;;;14.17;99.31;98955.75;177752;1256;58350;-83
2024/03/23 07:47:28;;;;;;;26.10;17.00;;;;;;;14.11;95.98;98935.95;177904;1256;46116;-84
2024/03/23 07:51:32;;;;;;;20.80;15.50;;;;;;;14.11;97.24;98927.64;178068;1256;45993;-84
2024/03/23 07:55:35;;;;;;;20.90;15.80;;;;;;;13.98;97.22;98924.33;178105;1257;46017;-83
2024/03/23 07:59:38;;;;;;;28.60;17.10;;;;;;;13.81;99.03;98915.62;177784;1257;46199;-83
2024/03/23 08:03:43;;;;;;;20.80;15.30;;;;;;;13.70;100.00;98906.09;177975;1257;58369;-84
2024/03/23 08:07:45;;;;;;;23.50;15.20;;;;;;;13.68;100.00;98884.17;178021;1256;46028;-83
2024/03/23 08:11:48;;;;;;;20.10;16.80;;;;;;;13.64;100.00;98875.06;178032;1257;46125;-83
2024/03/23 08:15:51;;;;;;;34.00;21.70;;;;;;;13.70;100.00;98861.66;178124;1256;45223;-83
2024/03/23 08:19:54;;;;;;;35.40;25.20;;;;;;;13.77;100.00;98851.65;178395;1255;45993;-81
2024/03/23 08:23:57;;;;;;;41.20;29.20;;;;;;;13.87;100.00;98834.95;178199;1256;59292;-81
2024/03/23 08:28:00;;;;;;;35.70;25.00;;;;;;;14.04;100.00;98830.27;178565;1256;45993;-82
2024/03/23 08:32:03;;;;;;;25.30;17.00;;;;;;;14.22;100.00;98827.41;178026;1256;44298;-82
2024/03/23 08:36:07;;;;;;;24.40;16.60;;;;;;;14.30;100.00;98821.14;177875;1255;46421;-82
2024/03/23 08:40:11;;;;;;;19.70;16.60;;;;;;;14.29;100.00;98808.11;178339;1256;46061;-82
2024/03/23 08:44:13;;;;;;;25.50;17.80;;;;;;;14.30;100.00;98797.02;178297;1256;58037;-83
2024/03/23 08:48:17;;;;;;;22.10;17.20;;;;;;;14.29;100.00;98777.14;177921;1255;46054;-82
2024/03/23 08:52:22;;;;;;;30.50;19.20;;;;;;;14.32;100.00;98770.56;178192;1256;45519;-81
2024/03/23 08:56:25;;;;;;;17.80;15.00;;;;;;;14.63;100.00;98767.36;178108;1257;46096;-82
2024/03/23 09:00:28;;;;;;;25.10;16.30;;;;;;;14.87;99.80;98752.48;177924;1256;46115;-82
2024/03/23 09:04:31;;;;;;;19.00;15.30;;;;;;;15.00;97.37;98745.55;178033;1256;59652;-82
2024/03/23 09:08:36;;;;;;;15.90;13.80;;;;;;;15.10;98.53;98736.81;178179;1256;46103;-82
2024/03/23 09:12:39;;;;;;;22.60;14.60;;;;;;;15.12;96.81;98728.02;178239;1256;45972;-82
2024/03/23 09:16:42;;;;;;;22.80;15.40;;;;;;;15.02;96.88;98716.77;178209;1255;46343;-82
2024/03/23 09:20:45;;;;;;;26.50;15.30;;;;;;;14.95;97.39;98713.17;177866;1256;46250;-81
2024/03/23 09:24:47;;;;;;;20.70;15.10;;;;;;;14.85;98.21;98700.94;178220;1256;58460;-81
2024/03/23 09:28:50;;;;;;;16.50;12.30;;;;;;;14.67;97.18;98701.70;178434;1257;46126;-82
2024/03/23 09:32:53;;;;;;;13.80;10.90;;;;;;;14.57;94.69;98703.36;178845;1256;46065;-82
2024/03/23 09:36:56;;;;;;;16.50;13.10;;;;;;;14.54;96.25;98727.74;178587;1259;46115;-82
2024/03/23 09:40:59;;;;;;;13.40;10.80;;;;;;;14.53;97.41;98737.81;178126;1255;46111;-84
2024/03/23 09:45:06;;;;;;;14.60;9.50;;;;;;;14.46;98.25;98729.64;178051;1256;57234;-82
2024/03/23 09:49:09;;;;;;;15.10;10.90;;;;;;;14.40;99.14;98716.08;180029;1255;46124;-84
2024/03/23 09:53:13;;;;;;;12.30;11.00;;;;;;;14.45;100.00;98708.39;178937;1256;46089;-82
2024/03/23 09:57:16;;;;;;;12.70;8.40;;;;;;;14.65;100.00;98700.81;179577;1256;46559;-83
2024/03/23 10:01:20;;;;;;;10.40;9.30;;;;;;;14.97;100.00;98686.49;178970;1257;44949;-83
2024/03/23 10:05:24;;;;;;;14.60;11.30;;;;;;;15.33;99.41;98665.31;179373;1259;59601;-83
2024/03/23 10:09:36;;;;;;;9.40;8.00;;;;;;;15.72;99.59;98661.36;179531;1257;46038;-83
2024/03/23 10:13:42;;;;;;;10.80;8.20;;;;;;;16.09;94.31;98659.02;179577;1257;46122;-82
2024/03/23 10:17:45;;;;;;;12.80;8.60;;;;;;;16.42;91.95;98648.82;179339;1257;46109;-83
2024/03/23 10:21:56;;;;;;;10.30;8.40;;;;;;;16.76;90.94;98631.70;178913;1259;46154;-82
2024/03/23 10:26:27;;;;;;;11.80;8.10;;;;;;;17.04;85.57;98626.75;178882;1259;59426;-82
2024/03/23 10:30:31;;;;;;;11.50;9.30;;;;;;;17.13;84.71;98614.84;178898;1256;46085;-83
2024/03/23 10:34:34;;;;;;;9.70;8.60;;;;;;;17.22;85.38;98606.51;178888;1259;46062;-82
2024/03/23 10:38:40;;;;;;;9.40;8.40;;;;;;;17.30;82.29;98610.66;179056;1256;44364;-82
2024/03/23 10:42:46;;;;;;;;;;;;;;;17.33;83.16;98607.56;179040;1255;46008;-83
2024/03/23 10:46:50;;;;;;;11.40;9.20;;;;;;;17.37;82.79;98598.02;178755;1256;59458;-84
2024/03/23 10:50:53;;;;;;;11.20;9.30;;;;;;;17.42;81.68;98588.35;179209;1256;46211;-83
2024/03/23 10:54:58;;;;;;;10.70;8.80;;;;;;;17.57;81.51;98579.31;179066;1256;45928;-83
2024/03/23 10:59:05;;;;;;;13.80;10.00;;;;;;;17.71;81.88;98575.48;179545;1256;46336;-84
2024/03/23 11:03:31;;;;;;;12.60;10.30;;;;;;;17.81;79.91;98569.51;179221;1256;46806;-82
2024/03/23 11:07:34;;;;;;;9.20;7.70;;;;;;;17.85;78.29;98560.81;178918;1255;60103;-83
2024/03/23 11:11:37;;;;;;;14.10;8.70;;;;;;;17.73;77.51;98557.32;179212;1256;46081;-83
2024/03/23 11:15:39;;;;;;;13.20;10.00;;;;;;;17.67;79.31;98550.55;178956;1255;46188;-83
2024/03/23 11:19:42;;;;;;;12.50;8.90;;;;;;;17.63;79.82;98543.75;179408;1259;232098;-85
2024/03/23 11:23:49;;;;;;;12.20;10.70;;;;;;;17.56;84.19;98568.77;179485;1255;45941;-83
2024/03/23 11:27:59;;;;;;;12.70;8.80;;;;;;;17.33;82.83;98562.41;179511;1255;57951;-83
2024/03/23 11:32:04;;;;;;;8.30;7.00;;;;;;;16.94;80.39;98551.88;179133;1255;44451;-83
2024/03/23 11:36:07;;;;;;;12.30;7.30;;;;;;;16.62;80.13;98550.57;179380;1256;46142;-83
2024/03/23 11:40:18;;;;;;;11.40;6.70;;;;;;;16.42;82.01;98549.23;178676;1257;45707;-83
2024/03/23 11:44:23;;;;;;;9.70;7.90;;;;;;;16.37;82.69;98545.08;179040;1256;45954;-84
2024/03/23 11:48:27;;;;;;;5.50;4.90;;;;;;;16.32;81.78;98536.40;178589;1255;59456;-83
2024/03/23 11:52:30;;;;;;;6.50;5.70;;;;;;;16.34;81.47;98553.08;177866;1258;46139;-83
2024/03/23 11:56:33;;;;;;;6.80;5.90;;;;;;;16.24;80.49;98562.52;178236;1256;46102;-82
2024/03/23 12:00:36;;;;;;;7.10;6.40;;;;;;;16.08;80.87;98573.03;179651;1256;46021;-82
2024/03/23 12:04:40;;;;;;;7.70;5.50;;;;;;;15.87;80.72;98569.46;178053;1259;46150;-83
2024/03/23 12:08:43;;;;;;;6.10;5.50;;;;;;;15.69;81.90;98583.04;177571;1255;57915;-82
2024/03/23 12:12:45;;;;;;;6.20;5.60;;;;;;;15.56;81.58;98593.42;178202;1255;46055;-82
2024/03/23 12:16:48;;;;;;;13.20;8.30;;;;;;;15.26;84.37;98593.89;178490;1257;46086;-82
2024/03/23 12:20:51;;;;;;;11.40;7.00;;;;;;;14.95;88.10;98601.67;178783;1256;44854;-82
2024/03/23 12:24:54;;;;;;;8.80;7.80;;;;;;;14.67;93.63;98606.48;178486;1256;46002;-82
2024/03/23 12:28:58;;;;;;;6.60;5.20;;;;;;;14.40;95.80;98617.91;178355;1256;59653;-82
2024/03/23 12:33:01;;;;;;;5.00;4.10;;;;;;;13.65;98.72;98651.58;178608;1256;46090;-82
2024/03/23 12:37:06;;;;;;;7.30;4.20;;;;;;;13.12;100.00;98652.43;178844;1259;46032;-81
2024/03/23 12:41:10;;;;;;;6.50;5.60;;;;;;;12.74;100.00;98654.42;178217;1259;46770;-83
2024/03/23 12:45:13;;;;;;;7.50;5.40;;;;;;;12.56;100.00;98656.01;178994;1255;46018;-82
2024/03/23 12:49:15;;;;;;;8.80;6.10;;;;;;;12.57;100.00;98670.08;179451;1255;60005;-82
2024/03/23 12:53:18;;;;;;;10.80;7.80;;;;;;;12.60;100.00;98668.12;179052;1255;46122;-82
2024/03/23 12:57:23;;;;;;;7.60;5.20;;;;;;;12.48;100.00;98688.17;178177;1256;46150;-82
2024/03/23 13:01:26;;;;;;;10.00;5.90;;;;;;;12.29;100.00;98697.26;178871;1256;46050;-82
2024/03/23 13:05:29;;;;;;;8.00;6.30;;;;;;;12.23;100.00;98709.72;178465;1255;47698;-83
2024/03/23 13:09:32;;;;;;;5.90;5.10;;;;;;;12.23;100.00;98730.98;179458;1256;59164;-82
2024/03/23 13:13:35;;;;;;;6.60;4.40;;;;;;;11.92;100.00;98766.61;178300;1256;46036;-82
2024/03/23 13:17:37;;;;;;;10.30;4.90;;;;;;;11.06;100.00;98809.46;177988;1256;46137;-82
2024/03/23 13:21:40;;;;;;;4.80;2.70;;;;;;;10.38;100.00;98811.55;178208;1256;45980;-76
2024/03/23 13:25:54;;;;;;;5.40;1.90;;;;;;;9.98;100.00;98812.52;179447;1256;44269;-82
2024/03/23 13:29:57;;;;;;;4.10;1.90;;;;;;;9.29;100.00;98855.89;178116;1256;59661;-82
2024/03/23 13:34:00;;;;;;;1.00;0.80;;;;;;;8.59;100.00;98881.90;178755;1255;46173;-81
2024/03/23 13:38:03;;;;;;;3.40;1.40;;;;;;;8.12;100.00;98911.90;178521;1255;46139;-82
2024/03/23 13:42:08;;;;;;;1.90;1.30;;;;;;;7.96;100.00;98936.88;178663;1256;46011;-82
2024/03/23 13:46:12;;;;;;;1.50;1.30;;;;;;;7.76;100.00;98948.91;179099;1256;46034;-82
2024/03/23 13:50:14;;;;;;;1.40;1.20;;;;;;;7.59;100.00;98959.25;178438;1258;58332;-82
2024/03/23 13:54:17;;;;;;;1.70;0.70;;;;;;;7.44;100.00;98971.16;178356;1256;46007;-82
2024/03/23 13:58:20;;;;;;;1.30;1.10;;;;;;;7.42;100.00;98994.66;178661;1256;46228;-81
2024/03/23 14:02:24;;;;;;;1.80;1.00;;;;;;;7.41;100.00;99022.79;178229;1256;46141;-81
2024/03/23 14:06:27;;;;;;;2.00;1.20;;;;;;;7.34;100.00;99052.97;177882;1259;46228;-81
2024/03/23 14:10:30;;;;;;;2.10;1.80;;;;;;;7.21;100.00;99069.70;178871;1256;59387;-81
2024/03/23 14:14:33;;;;;;;2.30;2.00;;;;;;;7.11;100.00;99088.65;177446;1259;46127;-80
2024/03/23 14:18:36;;;;;;;1.20;1.00;;;;;;;6.98;100.00;99076.73;177637;1256;46092;-81
2024/03/23 14:22:41;;;;;;;2.20;1.70;;;;;;;6.93;100.00;99100.64;178723;1256;46128;-82
2024/03/23 14:26:44;;;;;;;1.60;1.50;;;;;;;6.81;100.00;99103.56;178985;1255;46444;-82
2024/03/23 14:30:47;;;;;;;2.80;1.90;;;;;;;6.70;100.00;99103.77;178137;1256;59457;-83
2024/03/23 14:34:51;;;;;;;2.90;2.30;;;;;;;6.61;100.00;99112.64;179013;1256;45903;-83
2024/03/23 14:38:54;;;;;;;4.00;3.60;;;;;;;6.58;100.00;99136.66;179846;1255;46043;-82
2024/03/23 14:42:57;;;;;;;4.00;3.00;;;;;;;6.62;100.00;99139.33;178654;1257;44183;-83
2024/03/23 14:47:00;;;;;;;6.30;1.70;;;;;;;6.80;100.00;99125.48;178594;1256;46448;-82
2024/03/23 14:51:08;;;;;;;1.00;0.90;;;;;;;6.90;100.00;99130.66;178362;1256;58318;-82
2024/03/23 14:55:11;;;;;;;0.70;0.70;;;;;;;6.98;100.00;99118.34;178519;1255;45993;-82
2024/03/23 14:59:14;;;;;;;1.10;1.00;;;;;;;6.91;100.00;99139.92;178514;1259;45897;-83
2024/03/23 15:03:17;;;;;;;3.00;2.00;;;;;;;6.78;100.00;99164.30;178963;1255;46112;-82
2024/03/23 15:07:20;;;;;;;4.70;3.30;;;;;;;6.74;100.00;99174.27;179074;1257;44768;-82
2024/03/23 15:11:23;;;;;;;1.50;1.30;;;;;;;6.72;100.00;99164.55;178129;1256;59572;-82
2024/03/23 15:15:26;;;;;;;1.80;1.60;;;;;;;6.71;100.00;99167.45;178654;1256;46180;-82
2024/03/23 15:19:29;;;;;;;2.30;1.50;;;;;;;6.67;100.00;99180.28;178470;1256;46010;-83
2024/03/23 15:23:32;;;;;;;2.70;1.80;;;;;;;6.73;100.00;99180.19;178214;1256;46514;-83
2024/03/23 15:27:35;;;;;;;1.20;0.90;;;;;;;6.62;100.00;99179.97;178996;1255;45883;-82
2024/03/23 15:31:38;;;;;;;2.20;1.10;;;;;;;6.60;100.00;99193.05;179184;1259;59540;-82
2024/03/23 15:35:41;;;;;;;1.70;1.10;;;;;;;6.57;100.00;99197.54;179826;1256;45627;-83
2024/03/23 15:39:43;;;;;;;1.80;1.30;;;;;;;6.53;100.00;99185.85;179761;1255;46120;-82
2024/03/23 15:43:46;;;;;;;0.80;0.70;;;;;;;6.50;100.00;99195.26;179545;1257;44788;-82
2024/03/23 15:47:49;;;;;;;1.70;1.20;;;;;;;6.43;100.00;99210.94;179445;1256;45987;-82
2024/03/23 15:51:53;;;;;;;1.20;1.10;;;;;;;6.37;100.00;99225.71;178123;1256;58372;-83
2024/03/23 15:56:03;;;;;;;1.70;1.30;;;;;;;6.37;100.00;99233.67;178254;1255;46761;-82
2024/03/23 16:00:06;;;;;;;3.30;2.00;;;;;;;6.29;100.00;99219.35;178305;1256;45992;-82
2024/03/23 16:04:09;;;;;;;2.00;1.90;;;;;;;6.31;100.00;99220.23;178931;1255;46020;-82
2024/03/23 16:08:12;;;;;;;4.20;1.80;;;;;;;6.28;100.00;99207.74;178378;1255;46007;-82
2024/03/23 16:12:15;;;;;;;2.40;0.90;;;;;;;6.32;100.00;99210.05;178653;1259;58370;-83
2024/03/23 16:16:20;;;;;;;1.80;1.00;;;;;;;6.27;100.00;99217.56;178284;1255;46046;-82
2024/03/23 16:20:23;;;;;;;2.70;0.80;;;;;;;6.15;100.00;99226.41;178570;1256;46073;-82
2024/03/23 16:24:26;;;;;;;4.00;1.80;;;;;;;6.11;100.00;99229.92;178525;1256;46682;-83
2024/03/23 16:28:31;;;;;;;4.00;1.70;;;;;;;6.08;99.52;99244.23;178598;1256;46117;-84
2024/03/23 16:32:37;;;;;;;3.10;1.30;;;;;;;6.06;100.00;99259.67;178257;1255;59082;-83
2024/03/23 16:36:40;;;;;;;10.50;1.80;;;;;;;5.94;99.51;99257.48;179884;1256;89189;-63
2024/03/23 16:40:53;;;;;;;4.60;2.50;;;;;;;5.88;99.91;99263.18;180097;1257;43998;-64
2024/03/23 16:44:58;;;;;;;6.60;2.60;;;;;;;5.90;100.00;99275.18;180307;1257;46014;-63
2024/03/23 16:49:02;;;;;;;2.50;2.00;;;;;;;5.90;100.00;99272.73;180067;1257;43899;-63
2024/03/23 16:53:05;;;;;;;2.40;1.90;;;;;;;5.90;100.00;99272.73;180275;1257;58290;-64
2024/03/23 16:57:08;;;;;;;4.10;1.80;;;;;;;5.88;100.00;99268.67;180199;1256;44806;-63
2024/03/23 17:01:37;;;;;;;3.80;3.30;;;;;;;5.83;100.00;99289.58;180313;1257;45343;-63
2024/03/23 17:05:42;;;;;;;3.50;2.30;;;;;;;5.78;100.00;99307.73;180291;1257;44665;-64
2024/03/23 17:09:48;;;;;;;4.70;3.40;;;;;;;5.70;100.00;99285.67;180328;1256;45920;-65
2024/03/23 17:13:56;;;;;;;8.90;6.30;;;;;;;5.69;100.00;99267.10;180260;1257;58395;-64
2024/03/23 17:18:10;;;;;;;9.60;7.30;;;;;;;5.69;100.00;99260.10;180303;1257;44998;-63
2024/03/23 17:22:13;;;;;;;19.90;8.40;;;;;;;5.66;100.00;99272.42;180162;1259;45954;-64
2024/03/23 17:26:19;;;;;;;12.40;6.80;;;;;;;5.65;100.00;99278.84;180172;1257;45034;-66
2024/03/23 17:30:23;;;;;;;6.30;4.90;;;;;;;5.60;100.00;99298.41;180275;1259;45372;-64
2024/03/23 17:34:33;;;;;;;12.40;7.90;;;;;;;5.64;100.00;99334.15;180015;1256;58421;-63
2024/03/23 17:38:36;;;;;;;8.00;6.60;;;;;;;5.72;100.00;99369.77;180070;1257;43870;-63
2024/03/23 17:42:40;;;;;;;12.90;9.30;;;;;;;5.74;100.00;99387.96;180208;1256;45933;-63
2024/03/23 17:46:43;;;;;;;10.10;8.70;;;;;;;5.80;100.00;99380.77;180212;1257;45955;-64
2024/03/23 17:50:46;;;;;;;8.10;5.00;;;;;;;5.77;100.00;99361.52;180184;1257;45856;-64
2024/03/23 17:54:50;;;;;;;5.90;3.90;;;;;;;5.82;100.00;99360.96;180317;1257;58409;-64
2024/03/23 17:58:52;;;;;;;6.40;3.30;;;;;;;5.88;100.00;99355.17;180308;1257;43524;-64
2024/03/23 18:02:55;;;;;;;4.60;3.10;;;;;;;5.97;100.00;99366.52;180138;1257;45959;-64
2024/03/23 18:06:58;;;;;;;6.60;3.00;;;;;;;5.98;100.00;99378.02;180257;1257;45953;-64
2024/03/23 18:11:30;;;;;;;8.40;4.10;;;;;;;5.90;100.00;99391.69;180280;1257;45869;-65
2024/03/23 18:15:33;;;;;;;7.90;4.30;;;;;;;5.83;100.00;99401.54;180208;1258;57927;-64
2024/03/23 18:19:36;;;;;;;9.30;4.90;;;;;;;5.79;100.00;99411.34;180191;1258;46001;-64
2024/03/23 18:23:39;;;;;;;6.80;4.60;;;;;;;5.76;100.00;99418.05;180333;1257;46084;-64
2024/03/23 18:27:42;;;;;;;10.60;6.60;;;;;;;5.74;100.00;99405.85;180349;1257;45973;-64
2024/03/23 18:31:45;;;;;;;11.70;7.40;;;;;;;5.76;100.00;99406.64;180087;1257;45027;-65